createdAt,value
2022-08-23T00:02:24.587Z,4.68
2022-08-23T00:05:03.420Z,4.30
2022-08-23T00:07:39.620Z,4.18
2022-08-23T00:10:13.121Z,4.53
2022-08-23T00:12:41.306Z,4.53
2022-08-23T00:15:13.054Z,4.85
2022-08-23T00:17:39.967Z,5.10
2022-08-23T00:20:12.324Z,5.25
2022-08-23T00:22:40.682Z,5.25
2022-08-23T00:25:11.882Z,5.63
2022-08-23T00:27:39.747Z,5.53
2022-08-23T00:30:11.014Z,5.30
2022-08-23T00:32:40.169Z,6.10
2022-08-23T00:35:10.201Z,5.75
2022-08-23T00:37:38.264Z,5.63
2022-08-23T00:40:09.980Z,5.50
2022-08-23T00:43:17.386Z,5.43
2022-08-23T00:46:40.990Z,6.40
2022-08-23T00:49:12.139Z,6.28
2022-08-23T00:51:52.937Z,5.90
2022-08-23T00:54:24.555Z,6.40
2022-08-23T00:56:52.961Z,5.97
2022-08-23T00:59:20.084Z,5.65
2022-08-23T01:01:49.145Z,6.07
2022-08-23T01:04:17.390Z,5.63
2022-08-23T01:06:53.757Z,5.28
2022-08-23T01:09:22.499Z,5.68
2022-08-23T01:12:32.348Z,6.00
2022-08-23T01:15:16.414Z,5.72
2022-08-23T01:18:01.636Z,5.68
2022-08-23T01:20:40.927Z,5.57
2022-08-23T01:23:33.608Z,5.30
2022-08-23T01:26:01.803Z,5.40
2022-08-23T01:28:29.344Z,5.50
2022-08-23T01:30:57.262Z,5.50
2022-08-23T01:33:24.117Z,5.80
2022-08-23T01:35:58.060Z,5.50
2022-08-23T01:38:26.831Z,4.43
2022-08-23T01:40:57.146Z,4.23
2022-08-23T01:43:24.727Z,3.88
2022-08-23T01:45:53.433Z,4.35
2022-08-23T01:48:21.703Z,4.28
2022-08-23T01:50:49.082Z,4.82
2022-08-23T01:53:16.691Z,4.40
2022-08-23T01:55:44.198Z,4.68
2022-08-23T01:58:11.471Z,5.07
2022-08-23T02:00:41.958Z,4.63
2022-08-23T02:03:12.507Z,4.70
2022-08-23T02:05:42.287Z,4.30
2022-08-23T02:08:28.158Z,4.60
2022-08-23T02:10:55.296Z,4.60
2022-08-23T02:13:23.092Z,4.32
2022-08-23T02:15:51.539Z,4.63
2022-08-23T02:18:22.715Z,4.30
2022-08-23T02:20:52.263Z,4.53
2022-08-23T02:23:21.522Z,3.90
2022-08-23T02:25:51.501Z,3.92
2022-08-23T02:28:23.523Z,3.65
2022-08-23T02:30:52.059Z,3.63
2022-08-23T02:33:19.600Z,3.40
2022-08-23T02:35:48.005Z,3.70
2022-08-23T02:38:15.066Z,3.75
2022-08-23T02:40:42.505Z,4.30
2022-08-23T02:43:09.638Z,3.97
2022-08-23T02:45:37.867Z,4.78
2022-08-23T02:48:06.408Z,3.78
2022-08-23T02:50:33.626Z,4.88
2022-08-23T02:53:00.878Z,3.92
2022-08-23T02:55:28.360Z,4.35
2022-08-23T02:57:55.647Z,4.20
2022-08-23T03:00:23.445Z,4.57
2022-08-23T03:02:50.370Z,4.93
2022-08-23T03:05:17.921Z,4.28
2022-08-23T03:07:45.357Z,3.97
2022-08-23T03:10:13.539Z,4.40
2022-08-23T03:12:40.406Z,4.03
2022-08-23T03:15:08.505Z,3.97
2022-08-23T03:17:35.901Z,4.30
2022-08-23T03:20:04.331Z,4.30
2022-08-23T03:22:31.143Z,4.28
2022-08-23T03:24:58.467Z,4.80
2022-08-23T03:27:25.310Z,4.40
2022-08-23T03:29:52.560Z,3.75
2022-08-23T03:32:19.483Z,3.75
2022-08-23T03:34:46.798Z,4.40
2022-08-23T03:37:13.739Z,5.00
2022-08-23T03:39:41.120Z,5.72
2022-08-23T03:42:08.570Z,6.97
2022-08-23T03:44:35.443Z,5.82
2022-08-23T03:47:02.410Z,6.28
2022-08-23T03:49:29.396Z,6.50
2022-08-23T03:51:56.429Z,6.78
2022-08-23T03:54:23.382Z,6.78
2022-08-23T03:57:05.527Z,6.53
2022-08-23T03:59:34.881Z,6.07
2022-08-23T04:02:01.914Z,5.90
2022-08-23T04:04:28.982Z,5.95
2022-08-23T04:06:56.309Z,5.80
2022-08-23T04:09:23.867Z,5.70
2022-08-23T04:11:52.285Z,5.78
2022-08-23T04:14:19.593Z,5.72
2022-08-23T04:16:46.952Z,5.15
2022-08-23T04:19:15.951Z,4.88
2022-08-23T04:21:48.169Z,4.63
2022-08-23T04:24:16.989Z,4.70
2022-08-23T04:26:43.864Z,4.50
2022-08-23T04:29:23.103Z,4.68
2022-08-23T04:32:02.725Z,4.90
2022-08-23T04:34:33.770Z,5.55
2022-08-23T04:37:02.107Z,7.75
2022-08-23T04:39:29.270Z,7.35
2022-08-23T04:42:15.062Z,7.05
2022-08-23T04:44:42.819Z,6.65
2022-08-23T04:47:10.068Z,7.22
2022-08-23T04:49:37.047Z,6.68
2022-08-23T04:52:04.118Z,6.53
2022-08-23T04:54:31.388Z,6.75
2022-08-23T04:56:58.341Z,6.88
2022-08-23T04:59:25.124Z,6.60
2022-08-23T05:01:52.067Z,6.32
2022-08-23T05:04:19.048Z,6.50
2022-08-23T05:06:45.979Z,5.70
2022-08-23T05:09:19.850Z,6.25
2022-08-23T05:11:47.497Z,5.57
2022-08-23T05:14:14.342Z,5.47
2022-08-23T05:16:41.141Z,6.15
2022-08-23T05:19:08.009Z,6.15
2022-08-23T05:21:34.849Z,6.20
2022-08-23T05:24:03.748Z,6.30
2022-08-23T05:26:30.764Z,6.68
2022-08-23T05:28:57.696Z,6.07
2022-08-23T05:31:26.838Z,6.57
2022-08-23T05:33:54.039Z,6.47
2022-08-23T05:36:22.098Z,8.80
2022-08-23T05:38:50.557Z,7.25
2022-08-23T05:41:19.156Z,6.70
2022-08-23T05:43:50.467Z,6.95
2022-08-23T05:46:21.972Z,6.65
2022-08-23T05:48:53.572Z,7.20
2022-08-23T05:51:29.394Z,7.20
2022-08-23T05:54:01.003Z,7.03
2022-08-23T05:56:33.229Z,6.60
2022-08-23T05:59:06.483Z,6.63
2022-08-23T06:01:40.568Z,7.38
2022-08-23T06:04:12.416Z,6.03
2022-08-23T06:06:41.855Z,6.72
2022-08-23T06:09:14.306Z,5.80
2022-08-23T06:11:46.529Z,5.93
2022-08-23T06:14:14.292Z,6.27
2022-08-23T06:16:46.723Z,5.45
2022-08-23T06:19:15.081Z,5.63
2022-08-23T06:21:43.814Z,4.93
2022-08-23T06:24:12.436Z,4.85
2022-08-23T06:26:44.554Z,4.75
2022-08-23T06:29:19.112Z,4.80
2022-08-23T06:31:51.058Z,4.60
2022-08-23T06:34:23.325Z,4.10
2022-08-23T06:36:57.832Z,4.50
2022-08-23T06:39:27.959Z,4.65
2022-08-23T06:42:10.188Z,4.15
2022-08-23T06:44:50.798Z,4.40
2022-08-23T06:47:18.176Z,4.25
2022-08-23T06:49:57.441Z,4.10
2022-08-23T06:52:27.429Z,3.53
2022-08-23T06:54:54.543Z,3.65
2022-08-23T06:57:21.786Z,4.07
2022-08-23T06:59:49.983Z,4.32
2022-08-23T07:02:17.144Z,4.47
2022-08-23T07:04:44.277Z,4.60
2022-08-23T07:07:12.389Z,4.53
2022-08-23T07:09:40.879Z,3.75
2022-08-23T07:12:08.720Z,4.07
2022-08-23T07:14:38.069Z,5.13
2022-08-23T07:17:05.279Z,4.95
2022-08-23T09:36:25.698Z,1.80
2022-08-23T09:39:30.953Z,1.73
2022-08-23T09:41:59.909Z,1.67
2022-08-23T09:44:41.985Z,1.58
2022-08-23T09:47:17.079Z,1.92
2022-08-23T09:49:48.365Z,1.52
2022-08-23T09:52:26.981Z,1.60
2022-08-23T09:55:34.115Z,1.73
2022-08-23T09:58:06.676Z,1.90
2022-08-23T10:00:36.373Z,1.55
2022-08-23T10:03:27.093Z,1.20
2022-08-23T10:05:58.450Z,1.08
2022-08-23T10:08:33.420Z,0.80
2022-08-23T10:11:29.406Z,1.05
2022-08-23T10:13:56.828Z,1.13
2022-08-23T10:16:55.831Z,0.95
2022-08-23T10:19:47.884Z,1.38
2022-08-23T10:22:26.872Z,1.00
2022-08-23T10:25:36.743Z,1.10
2022-08-23T10:28:45.134Z,1.00
2022-08-23T10:31:32.673Z,1.30
2022-08-23T10:34:31.240Z,1.60
2022-08-23T10:37:15.726Z,1.10
2022-08-23T10:40:04.795Z,1.30
2022-08-23T10:43:01.501Z,1.38
2022-08-23T10:45:38.915Z,1.20
2022-08-23T10:48:29.392Z,1.70
2022-08-23T10:51:00.821Z,1.50
2022-08-23T10:53:46.679Z,1.90
2022-08-23T10:56:21.926Z,1.90
2022-08-23T10:58:56.994Z,1.60
2022-08-23T11:01:34.356Z,1.75
2022-08-23T11:04:07.295Z,1.83
2022-08-23T11:06:37.257Z,2.05
2022-08-23T11:09:19.247Z,2.30
2022-08-23T11:11:59.092Z,2.10
2022-08-23T11:14:31.927Z,2.10
2022-08-23T11:17:07.006Z,2.30
2022-08-23T11:19:52.483Z,2.08
2022-08-23T11:22:27.224Z,2.30
2022-08-23T11:25:05.429Z,2.35
2022-08-23T11:27:40.647Z,2.40
2022-08-23T11:30:32.524Z,2.08
2022-08-23T11:33:16.778Z,2.70
2022-08-23T11:36:22.315Z,2.65
2022-08-23T11:38:49.107Z,3.00
2022-08-23T11:41:30.352Z,3.10
2022-08-23T11:43:57.158Z,3.13
2022-08-23T11:46:31.610Z,2.78
2022-08-23T11:49:16.718Z,3.17
2022-08-23T11:52:11.287Z,2.85
2022-08-23T11:55:15.078Z,3.08
2022-08-23T11:58:23.394Z,3.10
2022-08-23T12:01:12.830Z,3.30
2022-08-23T12:04:01.622Z,2.85
2022-08-23T12:06:42.948Z,2.97
2022-08-23T12:09:21.053Z,2.50
2022-08-23T12:11:56.499Z,2.78
2022-08-23T12:14:32.490Z,2.75
2022-08-23T12:17:26.482Z,2.92
2022-08-23T12:20:17.042Z,2.60
2022-08-23T12:23:15.818Z,2.78
2022-08-23T12:25:43.814Z,2.50
2022-08-23T12:28:40.745Z,2.55
2022-08-23T12:31:47.149Z,5.53
2022-08-23T12:34:32.745Z,2.75
2022-08-23T12:41:49.265Z,2.75
2022-08-23T12:44:22.743Z,2.65
2022-08-23T12:46:50.867Z,2.90
2022-08-23T12:49:35.133Z,2.88
2022-08-23T12:52:13.116Z,2.83
2022-08-23T12:54:46.436Z,2.78
2022-08-23T12:57:19.671Z,2.75
2022-08-23T13:28:31.110Z,2.70
2022-08-23T13:33:35.164Z,2.60
2022-08-23T13:36:21.839Z,2.63
2022-08-23T13:38:49.639Z,2.60
2022-08-23T13:41:38.508Z,2.40
2022-08-23T13:44:08.548Z,2.78
2022-08-23T13:46:45.310Z,2.53
2022-08-23T13:49:28.511Z,2.42
2022-08-23T13:54:51.216Z,2.67
2022-08-23T13:57:20.662Z,2.40
2022-08-23T13:59:56.035Z,2.47
2022-08-23T14:02:24.467Z,2.67
2022-08-23T14:04:52.101Z,2.50
2022-08-23T14:07:19.702Z,2.30
2022-08-23T14:09:50.092Z,2.70
2022-08-23T14:12:25.525Z,2.50
2022-08-23T14:14:56.784Z,2.60
2022-08-23T14:17:23.977Z,2.72
2022-08-23T14:22:38.762Z,2.50
2022-08-23T14:25:07.673Z,2.70
2022-08-23T14:27:35.320Z,2.83
2022-08-23T14:30:04.622Z,2.80
2022-08-23T14:32:32.312Z,3.28
2022-08-23T14:34:59.232Z,2.92
2022-08-23T14:40:13.573Z,3.33
2022-08-23T14:42:40.715Z,3.30
2022-08-23T14:45:08.275Z,3.20
2022-08-23T14:47:35.613Z,3.20
2022-08-23T14:50:06.785Z,5.13
2022-08-23T14:52:37.004Z,4.18
2022-08-23T14:55:04.561Z,3.17
2022-08-23T14:57:31.496Z,3.42
2022-08-23T14:59:59.082Z,3.38
2022-08-23T15:02:27.651Z,3.17
2022-08-23T15:04:55.721Z,3.80
2022-08-23T15:07:23.693Z,3.00
2022-08-23T15:09:54.702Z,3.70
2022-08-23T15:15:15.784Z,3.15
2022-08-23T15:17:51.926Z,3.90
2022-08-23T15:20:21.481Z,3.65
2022-08-23T15:22:55.250Z,3.67
2022-08-23T15:25:25.166Z,3.25
2022-08-23T15:27:52.472Z,3.25
2022-08-23T15:30:19.732Z,3.25
2022-08-23T15:32:52.527Z,3.15
2022-08-23T15:35:25.824Z,3.45
2022-08-23T15:37:54.743Z,2.75
2022-08-23T15:57:47.765Z,2.85
2022-08-23T16:00:17.876Z,2.40
2022-08-23T16:03:15.891Z,2.80
2022-08-23T16:05:32.455Z,2.50
2022-08-23T16:10:34.013Z,2.95
2022-08-23T16:13:01.275Z,3.05
2022-08-23T16:15:28.216Z,3.13
2022-08-23T16:17:55.146Z,2.80
2022-08-23T16:20:22.279Z,2.80
2022-08-23T16:22:49.158Z,2.90
2022-08-23T16:25:16.032Z,2.92
2022-08-23T16:27:43.176Z,2.80
2022-08-23T16:30:12.613Z,2.60
2022-08-23T16:32:40.074Z,2.80
2022-08-23T16:35:08.422Z,2.90
2022-08-23T16:37:36.355Z,2.85
2022-08-23T16:40:07.664Z,2.88
2022-08-23T16:42:34.679Z,2.97
2022-08-23T16:45:02.075Z,3.05
2022-08-23T16:47:32.316Z,2.88
2022-08-23T16:49:59.243Z,3.20
2022-08-23T16:52:26.117Z,3.00
2022-08-23T16:55:07.191Z,3.35
2022-08-23T16:57:34.325Z,2.97
2022-08-23T17:00:02.103Z,2.95
2022-08-23T17:02:35.424Z,2.97
2022-08-23T17:05:03.350Z,3.33
2022-08-23T17:07:30.512Z,3.22
2022-08-23T17:09:57.423Z,3.40
2022-08-23T17:12:24.281Z,3.28
2022-08-23T17:14:51.717Z,3.30
2022-08-23T17:17:18.879Z,3.42
2022-08-23T17:19:45.729Z,3.17
2022-08-23T17:22:13.395Z,3.45
2022-08-23T17:24:40.707Z,3.33
2022-08-23T17:27:08.141Z,3.60
2022-08-23T17:29:37.625Z,3.80
2022-08-23T17:32:05.418Z,3.50
2022-08-23T17:34:32.640Z,3.75
2022-08-23T17:36:59.709Z,3.75
2022-08-23T17:39:29.301Z,3.70
2022-08-23T17:41:57.857Z,3.63
2022-08-23T17:44:25.059Z,3.72
2022-08-23T17:46:52.512Z,4.25
2022-08-23T17:49:20.264Z,4.68
2022-08-23T17:51:47.443Z,4.07
2022-08-23T17:54:15.827Z,4.18
2022-08-23T17:56:50.182Z,3.90
2022-08-23T17:59:19.767Z,3.83
2022-08-23T18:01:46.780Z,3.80
2022-08-23T18:04:13.900Z,4.03
2022-08-23T18:06:41.163Z,3.72
2022-08-23T18:09:08.376Z,3.80
2022-08-23T18:11:36.200Z,4.05
2022-08-23T18:14:03.634Z,3.88
2022-08-23T18:16:35.327Z,3.72
2022-08-23T18:19:05.889Z,3.90
2022-08-23T18:21:38.849Z,3.92
2022-08-23T18:24:07.389Z,3.65
2022-08-23T18:26:55.358Z,3.67
2022-08-23T18:29:23.607Z,3.75
2022-08-23T18:31:51.097Z,3.80
2022-08-23T18:34:19.277Z,4.10
2022-08-23T18:36:46.947Z,3.80
2022-08-23T18:39:15.481Z,3.88
2022-08-23T18:41:43.094Z,4.25
2022-08-23T18:44:10.924Z,4.63
2022-08-23T18:46:41.563Z,3.75
2022-08-23T18:49:10.452Z,4.00
2022-08-23T18:51:39.538Z,4.68
2022-08-23T18:54:07.556Z,4.65
2022-08-23T18:56:35.157Z,4.85
2022-08-23T18:59:03.758Z,4.82
2022-08-23T19:01:36.367Z,5.60
2022-08-23T19:04:06.157Z,5.13
2022-08-23T19:06:34.019Z,4.80
2022-08-23T19:09:01.119Z,5.60
2022-08-23T19:11:29.694Z,5.68
2022-08-23T19:13:58.410Z,5.68
2022-08-23T19:16:26.511Z,6.20
2022-08-23T19:18:55.056Z,5.47
2022-08-23T19:21:25.483Z,5.72
2022-08-23T19:23:56.003Z,5.93
2022-08-23T19:26:31.686Z,5.82
2022-08-23T19:29:00.815Z,6.00
2022-08-23T19:31:33.549Z,5.80
2022-08-23T19:34:03.444Z,5.95
2022-08-23T19:36:45.700Z,5.55
2022-08-23T19:39:13.875Z,6.38
2022-08-23T19:41:41.964Z,6.30
2022-08-23T19:44:09.768Z,6.05
2022-08-23T19:46:41.222Z,6.47
2022-08-23T19:49:12.579Z,6.60
2022-08-23T19:51:40.047Z,6.03
2022-08-23T19:54:11.328Z,6.50
2022-08-23T19:56:46.915Z,6.72
2022-08-23T19:59:19.556Z,6.53
2022-08-23T20:01:52.246Z,6.65
2022-08-23T20:04:21.013Z,6.13
2022-08-23T20:06:48.795Z,6.18
2022-08-23T20:09:16.647Z,6.55
2022-08-23T20:11:43.631Z,6.30
2022-08-23T20:14:11.019Z,7.15
2022-08-23T20:16:40.984Z,6.45
2022-08-23T20:19:10.195Z,6.50
2022-08-23T20:21:38.957Z,7.32
2022-08-23T20:24:07.866Z,6.20
2022-08-23T20:26:42.066Z,6.68
2022-08-23T20:29:18.371Z,6.47
2022-08-23T20:31:56.142Z,6.85
2022-08-23T20:34:26.463Z,6.50
2022-08-23T20:36:56.028Z,6.75
2022-08-23T20:39:24.840Z,7.45
2022-08-23T20:41:53.012Z,6.95
2022-08-23T20:44:21.749Z,7.35
2022-08-23T20:46:53.746Z,7.95
2022-08-23T20:51:50.125Z,6.43
2022-08-23T20:54:18.313Z,8.25
2022-08-23T20:56:45.454Z,7.65
2022-08-23T20:59:15.484Z,7.82
2022-08-23T21:01:42.420Z,8.07
2022-08-23T21:04:10.349Z,7.53
2022-08-23T21:06:45.143Z,7.43
2022-08-23T21:09:17.151Z,7.93
2022-08-23T21:11:45.675Z,7.93
2022-08-23T21:14:15.330Z,7.40
2022-08-23T21:16:44.862Z,7.60
2022-08-23T21:19:12.004Z,7.57
2022-08-23T21:21:39.669Z,7.18
2022-08-23T21:24:09.025Z,6.93
2022-08-23T21:26:36.636Z,7.35
2022-08-23T21:29:05.162Z,7.07
2022-08-23T21:31:32.339Z,7.18
2022-08-23T21:34:00.526Z,7.03
2022-08-23T21:36:28.708Z,6.70
2022-08-23T21:38:55.834Z,6.97
2022-08-23T21:41:37.190Z,7.22
2022-08-23T21:44:09.228Z,6.43
2022-08-23T21:46:42.400Z,6.75
2022-08-23T21:49:12.406Z,6.18
2022-08-23T21:51:41.302Z,6.47
2022-08-23T21:54:11.244Z,7.05
2022-08-23T21:56:39.517Z,6.55
2022-08-23T21:59:10.126Z,6.32
2022-08-23T22:01:39.299Z,7.15
2022-08-23T22:04:09.819Z,7.38
2022-08-23T22:06:38.636Z,7.30
2022-08-23T22:09:09.052Z,6.63
2022-08-23T22:11:41.627Z,7.10
2022-08-23T22:14:11.351Z,7.00
2022-08-23T22:16:40.753Z,6.57
2022-08-23T22:19:08.016Z,6.80
2022-08-23T22:21:35.825Z,6.72
2022-08-23T22:24:02.930Z,7.20
2022-08-23T22:26:29.870Z,7.38
2022-08-23T22:28:57.153Z,6.57
2022-08-23T22:31:24.843Z,6.22
2022-08-23T22:33:52.771Z,7.57
2022-08-23T22:36:22.109Z,7.00
2022-08-23T22:38:50.915Z,7.03
2022-08-23T22:41:21.921Z,6.88
2022-08-23T22:43:48.826Z,7.05
2022-08-23T22:46:16.207Z,7.65
2022-08-23T22:48:43.487Z,6.97
2022-08-23T22:51:13.588Z,7.78
2022-08-23T22:53:47.344Z,7.35
2022-08-23T22:56:22.207Z,7.97
2022-08-23T22:58:52.690Z,7.93
2022-08-23T23:01:27.665Z,7.60
2022-08-23T23:03:57.638Z,7.80
2022-08-23T23:06:25.210Z,8.25
2022-08-23T23:08:52.613Z,8.05
2022-08-23T23:11:22.104Z,8.65
2022-08-23T23:13:50.201Z,8.20
2022-08-23T23:16:23.087Z,7.70
2022-08-23T23:19:09.232Z,8.10
2022-08-23T23:21:43.711Z,8.38
2022-08-23T23:24:15.878Z,8.55
2022-08-23T23:26:42.974Z,8.17
2022-08-23T23:29:14.868Z,8.40
2022-08-23T23:31:42.111Z,8.68
2022-08-23T23:34:09.612Z,8.32
2022-08-23T23:36:37.833Z,9.05
2022-08-23T23:39:06.547Z,8.90
2022-08-23T23:41:33.337Z,8.23
2022-08-23T23:44:00.562Z,8.95
2022-08-23T23:46:28.602Z,9.23
2022-08-23T23:48:56.022Z,9.18
2022-08-23T23:51:29.760Z,9.15
2022-08-23T23:53:59.540Z,8.80
2022-08-23T23:56:30.540Z,8.00
2022-08-23T23:58:58.528Z,9.85
